sensor_id;sensor_type;location;lat;lon;timestamp;pressure;altitude;pressure_sealevel;temperature
13497;BMP180;6820;49.374;8.452;2022-09-30T00:03:47;99716.22;;;17.82
13497;BMP180;6820;49.374;8.452;2022-09-30T00:07:49;99715.41;;;17.83
13497;BMP180;6820;49.374;8.452;2022-09-30T00:11:51;99720.56;;;17.83
13497;BMP180;6820;49.374;8.452;2022-09-30T00:15:52;99719.72;;;17.86
13497;BMP180;6820;49.374;8.452;2022-09-30T00:19:54;99717.09;;;17.83
13497;BMP180;6820;49.374;8.452;2022-09-30T00:23:56;99719.53;;;17.77
13497;BMP180;6820;49.374;8.452;2022-09-30T00:27:58;99724.47;;;17.69
13497;BMP180;6820;49.374;8.452;2022-09-30T00:31:59;99725.19;;;17.63
13497;BMP180;6820;49.374;8.452;2022-09-30T00:36:02;99729.53;;;17.67
13497;BMP180;6820;49.374;8.452;2022-09-30T00:40:04;99722.88;;;17.73
13497;BMP180;6820;49.374;8.452;2022-09-30T00:48:48;99720.38;;;17.77
13497;BMP180;6820;49.374;8.452;2022-09-30T00:57:14;99725.69;;;17.85
13497;BMP180;6820;49.374;8.452;2022-09-30T01:01:16;99720.38;;;17.76
13497;BMP180;6820;49.374;8.452;2022-09-30T01:05:18;99727.81;;;17.66
13497;BMP180;6820;49.374;8.452;2022-09-30T01:09:20;99721.59;;;17.56
13497;BMP180;6820;49.374;8.452;2022-09-30T01:13:23;99728.50;;;17.59
13497;BMP180;6820;49.374;8.452;2022-09-30T01:31:10;99738.19;;;17.70
13497;BMP180;6820;49.374;8.452;2022-09-30T01:35:41;99734.59;;;17.62
13497;BMP180;6820;49.374;8.452;2022-09-30T01:56:54;99770.00;;;17.11
13497;BMP180;6820;49.374;8.452;2022-09-30T02:01:01;99768.16;;;17.07
13497;BMP180;6820;49.374;8.452;2022-09-30T02:05:41;99774.72;;;16.98
13497;BMP180;6820;49.374;8.452;2022-09-30T02:09:39;99778.00;;;16.92
13497;BMP180;6820;49.374;8.452;2022-09-30T02:13:48;99780.56;;;16.92
13497;BMP180;6820;49.374;8.452;2022-09-30T02:18:03;99785.03;;;16.99
13497;BMP180;6820;49.374;8.452;2022-09-30T02:22:21;99787.78;;;17.07
13497;BMP180;6820;49.374;8.452;2022-09-30T02:26:27;99794.88;;;17.15
13497;BMP180;6820;49.374;8.452;2022-09-30T02:30:32;99788.81;;;17.13
13497;BMP180;6820;49.374;8.452;2022-09-30T02:34:42;99793.22;;;17.18
13497;BMP180;6820;49.374;8.452;2022-09-30T02:38:50;99801.00;;;17.21
13497;BMP180;6820;49.374;8.452;2022-09-30T02:42:56;99792.66;;;17.28
13497;BMP180;6820;49.374;8.452;2022-09-30T02:51:21;99792.84;;;17.36
13497;BMP180;6820;49.374;8.452;2022-09-30T02:55:31;99789.44;;;17.37
13497;BMP180;6820;49.374;8.452;2022-09-30T02:59:34;99793.72;;;17.36
13497;BMP180;6820;49.374;8.452;2022-09-30T03:03:39;99793.56;;;17.30
13497;BMP180;6820;49.374;8.452;2022-09-30T03:07:42;99794.16;;;17.20
13497;BMP180;6820;49.374;8.452;2022-09-30T03:11:45;99797.56;;;17.19
13497;BMP180;6820;49.374;8.452;2022-09-30T03:16:07;99797.56;;;17.21
13497;BMP180;6820;49.374;8.452;2022-09-30T03:20:29;99806.03;;;17.18
13497;BMP180;6820;49.374;8.452;2022-09-30T03:24:37;99807.69;;;17.16
13497;BMP180;6820;49.374;8.452;2022-09-30T03:33:41;99823.75;;;16.80
13497;BMP180;6820;49.374;8.452;2022-09-30T03:37:55;99819.03;;;16.65
13497;BMP180;6820;49.374;8.452;2022-09-30T03:42:14;99819.56;;;16.53
13497;BMP180;6820;49.374;8.452;2022-09-30T03:50:34;99825.59;;;16.28
13497;BMP180;6820;49.374;8.452;2022-09-30T03:54:48;99823.81;;;16.25
13497;BMP180;6820;49.374;8.452;2022-09-30T03:58:52;99823.72;;;16.22
13497;BMP180;6820;49.374;8.452;2022-09-30T04:02:54;99826.34;;;16.24
13497;BMP180;6820;49.374;8.452;2022-09-30T04:06:58;99827.16;;;16.23
13497;BMP180;6820;49.374;8.452;2022-09-30T04:11:00;99835.56;;;16.19
13497;BMP180;6820;49.374;8.452;2022-09-30T04:15:02;99832.84;;;16.13
13497;BMP180;6820;49.374;8.452;2022-09-30T04:19:03;99843.81;;;16.12
13497;BMP180;6820;49.374;8.452;2022-09-30T04:23:05;99860.13;;;16.14
13497;BMP180;6820;49.374;8.452;2022-09-30T04:27:07;99859.75;;;16.04
13497;BMP180;6820;49.374;8.452;2022-09-30T04:31:09;99868.25;;;16.03
13497;BMP180;6820;49.374;8.452;2022-09-30T04:35:13;99868.38;;;16.07
13497;BMP180;6820;49.374;8.452;2022-09-30T04:39:14;99870.31;;;16.13
13497;BMP180;6820;49.374;8.452;2022-09-30T04:43:17;99870.22;;;16.11
13497;BMP180;6820;49.374;8.452;2022-09-30T04:47:19;99883.69;;;16.06
13497;BMP180;6820;49.374;8.452;2022-09-30T04:51:20;99887.94;;;16.05
13497;BMP180;6820;49.374;8.452;2022-09-30T04:55:22;99887.63;;;15.96
13497;BMP180;6820;49.374;8.452;2022-09-30T04:59:23;99896.09;;;15.94
13497;BMP180;6820;49.374;8.452;2022-09-30T05:03:25;99903.78;;;15.95
13497;BMP180;6820;49.374;8.452;2022-09-30T05:07:26;99914.84;;;15.94
13497;BMP180;6820;49.374;8.452;2022-09-30T05:11:28;99916.56;;;15.95
13497;BMP180;6820;49.374;8.452;2022-09-30T05:15:30;99922.50;;;15.94
13497;BMP180;6820;49.374;8.452;2022-09-30T05:19:31;99921.63;;;15.94
13497;BMP180;6820;49.374;8.452;2022-09-30T05:23:33;99924.13;;;15.92
13497;BMP180;6820;49.374;8.452;2022-09-30T05:27:34;99929.06;;;15.86
13497;BMP180;6820;49.374;8.452;2022-09-30T05:31:36;99930.75;;;15.86
13497;BMP180;6820;49.374;8.452;2022-09-30T05:35:39;99943.53;;;15.86
13497;BMP180;6820;49.374;8.452;2022-09-30T05:39:41;99943.44;;;15.84
13497;BMP180;6820;49.374;8.452;2022-09-30T05:43:43;99951.78;;;15.79
13497;BMP180;6820;49.374;8.452;2022-09-30T05:47:50;99950.81;;;15.76
13497;BMP180;6820;49.374;8.452;2022-09-30T05:51:52;99955.84;;;15.73
13497;BMP180;6820;49.374;8.452;2022-09-30T05:55:54;99956.63;;;15.72
13497;BMP180;6820;49.374;8.452;2022-09-30T05:59:56;99977.03;;;15.70
13497;BMP180;6820;49.374;8.452;2022-09-30T06:03:58;99982.25;;;15.73
13497;BMP180;6820;49.374;8.452;2022-09-30T06:08:00;99993.34;;;15.75
13497;BMP180;6820;49.374;8.452;2022-09-30T06:12:01;99989.63;;;15.66
13497;BMP180;6820;49.374;8.452;2022-09-30T06:16:03;99993.81;;;15.64
13497;BMP180;6820;49.374;8.452;2022-09-30T06:20:05;99997.88;;;15.59
13497;BMP180;6820;49.374;8.452;2022-09-30T06:24:08;100001.84;;;15.51
13497;BMP180;6820;49.374;8.452;2022-09-30T06:28:13;100001.75;;;15.48
13497;BMP180;6820;49.374;8.452;2022-09-30T06:32:15;100003.53;;;15.49
13497;BMP180;6820;49.374;8.452;2022-09-30T06:36:17;100016.66;;;15.59
13497;BMP180;6820;49.374;8.452;2022-09-30T06:40:19;100027.66;;;15.82
13497;BMP180;6820;49.374;8.452;2022-09-30T06:44:25;100029.09;;;15.98
13497;BMP180;6820;49.374;8.452;2022-09-30T06:48:26;100034.22;;;16.23
13497;BMP180;6820;49.374;8.452;2022-09-30T06:52:39;100026.84;;;16.56
13497;BMP180;6820;49.374;8.452;2022-09-30T06:56:40;100028.72;;;16.89
13497;BMP180;6820;49.374;8.452;2022-09-30T07:00:42;100031.59;;;16.98
13497;BMP180;6820;49.374;8.452;2022-09-30T07:04:44;100033.91;;;17.17
13497;BMP180;6820;49.374;8.452;2022-09-30T07:08:46;100029.19;;;17.32
13497;BMP180;6820;49.374;8.452;2022-09-30T07:12:49;100026.91;;;17.40
13497;BMP180;6820;49.374;8.452;2022-09-30T07:16:51;100030.13;;;17.35
13497;BMP180;6820;49.374;8.452;2022-09-30T07:20:55;100038.72;;;17.36
13497;BMP180;6820;49.374;8.452;2022-09-30T07:24:58;100032.50;;;17.28
13497;BMP180;6820;49.374;8.452;2022-09-30T07:29:00;100045.81;;;17.16
13497;BMP180;6820;49.374;8.452;2022-09-30T07:33:02;100045.34;;;17.02
13497;BMP180;6820;49.374;8.452;2022-09-30T07:37:04;100056.09;;;16.92
13497;BMP180;6820;49.374;8.452;2022-09-30T07:41:11;100062.97;;;16.93
13497;BMP180;6820;49.374;8.452;2022-09-30T07:45:13;100073.91;;;16.87
13497;BMP180;6820;49.374;8.452;2022-09-30T07:49:17;100069.75;;;16.91
13497;BMP180;6820;49.374;8.452;2022-09-30T07:53:26;100074.19;;;16.98
13497;BMP180;6820;49.374;8.452;2022-09-30T07:57:29;100077.94;;;17.07
13497;BMP180;6820;49.374;8.452;2022-09-30T08:01:31;100085.13;;;17.18
13497;BMP180;6820;49.374;8.452;2022-09-30T08:05:39;100087.16;;;17.28
13497;BMP180;6820;49.374;8.452;2022-09-30T08:09:41;100089.94;;;17.36
13497;BMP180;6820;49.374;8.452;2022-09-30T08:13:42;100093.59;;;17.43
13497;BMP180;6820;49.374;8.452;2022-09-30T08:17:44;100098.91;;;17.49
13497;BMP180;6820;49.374;8.452;2022-09-30T08:21:46;100110.19;;;17.56
13497;BMP180;6820;49.374;8.452;2022-09-30T08:25:48;100118.69;;;17.55
13497;BMP180;6820;49.374;8.452;2022-09-30T08:29:49;100112.03;;;17.60
13497;BMP180;6820;49.374;8.452;2022-09-30T08:33:57;100110.53;;;17.68
13497;BMP180;6820;49.374;8.452;2022-09-30T08:37:58;100116.63;;;17.71
13497;BMP180;6820;49.374;8.452;2022-09-30T08:42:16;100115.97;;;17.78
13497;BMP180;6820;49.374;8.452;2022-09-30T08:46:47;100117.16;;;17.90
13497;BMP180;6820;49.374;8.452;2022-09-30T08:55:22;100127.88;;;18.05
13497;BMP180;6820;49.374;8.452;2022-09-30T08:59:43;100115.50;;;18.21
13497;BMP180;6820;49.374;8.452;2022-09-30T09:03:45;100114.97;;;18.32
13497;BMP180;6820;49.374;8.452;2022-09-30T09:08:03;100121.22;;;18.43
13497;BMP180;6820;49.374;8.452;2022-09-30T09:12:13;100121.63;;;18.58
13497;BMP180;6820;49.374;8.452;2022-09-30T09:16:23;100110.00;;;18.73
13497;BMP180;6820;49.374;8.452;2022-09-30T09:20:32;100116.38;;;18.87
13497;BMP180;6820;49.374;8.452;2022-09-30T09:24:42;100125.28;;;19.01
13497;BMP180;6820;49.374;8.452;2022-09-30T09:33:20;100106.06;;;19.21
13497;BMP180;6820;49.374;8.452;2022-09-30T09:50:47;100117.47;;;19.72
13497;BMP180;6820;49.374;8.452;2022-09-30T09:54:51;100117.66;;;19.80
13497;BMP180;6820;49.374;8.452;2022-09-30T09:59:13;100117.91;;;19.91
13497;BMP180;6820;49.374;8.452;2022-09-30T10:03:23;100125.75;;;19.97
13497;BMP180;6820;49.374;8.452;2022-09-30T10:07:29;100118.94;;;19.99
13497;BMP180;6820;49.374;8.452;2022-09-30T10:11:31;100116.47;;;20.05
13497;BMP180;6820;49.374;8.452;2022-09-30T10:15:32;100108.97;;;20.17
13497;BMP180;6820;49.374;8.452;2022-09-30T10:19:38;100116.00;;;20.25
13497;BMP180;6820;49.374;8.452;2022-09-30T10:23:40;100117.03;;;20.35
13497;BMP180;6820;49.374;8.452;2022-09-30T10:27:51;100107.00;;;20.49
13497;BMP180;6820;49.374;8.452;2022-09-30T10:31:53;100094.38;;;20.63
13497;BMP180;6820;49.374;8.452;2022-09-30T10:36:04;100104.00;;;20.71
13497;BMP180;6820;49.374;8.452;2022-09-30T10:40:11;100105.00;;;20.80
13497;BMP180;6820;49.374;8.452;2022-09-30T10:44:21;100099.06;;;20.86
13497;BMP180;6820;49.374;8.452;2022-09-30T10:48:24;100103.50;;;20.93
13497;BMP180;6820;49.374;8.452;2022-09-30T10:52:32;100094.09;;;20.96
13497;BMP180;6820;49.374;8.452;2022-09-30T11:00:39;100087.44;;;21.10
13497;BMP180;6820;49.374;8.452;2022-09-30T11:05:06;100096.97;;;21.15
13497;BMP180;6820;49.374;8.452;2022-09-30T11:09:33;100095.28;;;21.19
13497;BMP180;6820;49.374;8.452;2022-09-30T11:13:49;100093.69;;;21.25
13497;BMP180;6820;49.374;8.452;2022-09-30T11:18:14;100103.28;;;21.34
13497;BMP180;6820;49.374;8.452;2022-09-30T11:22:38;100099.16;;;21.46
13497;BMP180;6820;49.374;8.452;2022-09-30T11:26:52;100101.84;;;21.56
13497;BMP180;6820;49.374;8.452;2022-09-30T11:35:55;100083.16;;;21.70
13497;BMP180;6820;49.374;8.452;2022-09-30T11:44:36;100083.47;;;21.98
13497;BMP180;6820;49.374;8.452;2022-09-30T11:57:49;100090.66;;;22.23
13497;BMP180;6820;49.374;8.452;2022-09-30T12:01:57;100085.59;;;22.35
13497;BMP180;6820;49.374;8.452;2022-09-30T12:06:06;100074.53;;;22.48
13497;BMP180;6820;49.374;8.452;2022-09-30T12:10:20;100080.69;;;22.61
13497;BMP180;6820;49.374;8.452;2022-09-30T12:18:44;100082.75;;;23.02
13497;BMP180;6820;49.374;8.452;2022-09-30T12:22:46;100075.16;;;23.29
13497;BMP180;6820;49.374;8.452;2022-09-30T12:26:50;100076.19;;;23.53
13497;BMP180;6820;49.374;8.452;2022-09-30T12:30:59;100081.44;;;23.72
13497;BMP180;6820;49.374;8.452;2022-09-30T12:35:47;100089.28;;;23.87
13497;BMP180;6820;49.374;8.452;2022-09-30T12:40:25;100085.03;;;24.11
13497;BMP180;6820;49.374;8.452;2022-09-30T12:48:38;100092.03;;;24.33
13497;BMP180;6820;49.374;8.452;2022-09-30T12:52:42;100087.72;;;24.42
13497;BMP180;6820;49.374;8.452;2022-09-30T12:56:45;100092.06;;;24.73
13497;BMP180;6820;49.374;8.452;2022-09-30T13:01:12;100080.81;;;24.78
13497;BMP180;6820;49.374;8.452;2022-09-30T13:09:36;100065.25;;;25.13
13497;BMP180;6820;49.374;8.452;2022-09-30T13:13:56;100072.22;;;25.06
13497;BMP180;6820;49.374;8.452;2022-09-30T13:27:05;100080.81;;;25.18
13497;BMP180;6820;49.374;8.452;2022-09-30T13:39:50;100079.88;;;25.47
13497;BMP180;6820;49.374;8.452;2022-09-30T13:44:05;100074.59;;;25.78
13497;BMP180;6820;49.374;8.452;2022-09-30T13:48:15;100066.69;;;26.01
13497;BMP180;6820;49.374;8.452;2022-09-30T13:52:24;100070.94;;;26.11
13497;BMP180;6820;49.374;8.452;2022-09-30T13:56:32;100069.28;;;26.04
13497;BMP180;6820;49.374;8.452;2022-09-30T14:00:53;100067.50;;;26.14
13497;BMP180;6820;49.374;8.452;2022-09-30T14:13:35;100083.31;;;25.70
13497;BMP180;6820;49.374;8.452;2022-09-30T14:22:10;100076.50;;;24.83
13497;BMP180;6820;49.374;8.452;2022-09-30T14:30:21;100059.94;;;25.64
13497;BMP180;6820;49.374;8.452;2022-09-30T14:34:23;100051.94;;;26.05
13497;BMP180;6820;49.374;8.452;2022-09-30T14:38:27;100057.16;;;26.02
13497;BMP180;6820;49.374;8.452;2022-09-30T14:42:37;100058.16;;;25.76
13497;BMP180;6820;49.374;8.452;2022-09-30T14:46:42;100069.53;;;25.38
13497;BMP180;6820;49.374;8.452;2022-09-30T14:50:54;100075.63;;;24.81
13497;BMP180;6820;49.374;8.452;2022-09-30T14:54:56;100072.16;;;24.49
13497;BMP180;6820;49.374;8.452;2022-09-30T14:59:05;100066.13;;;24.80
13497;BMP180;6820;49.374;8.452;2022-09-30T15:03:11;100068.72;;;25.24
13497;BMP180;6820;49.374;8.452;2022-09-30T15:07:14;100066.88;;;25.56
13497;BMP180;6820;49.374;8.452;2022-09-30T15:11:20;100061.63;;;25.73
13497;BMP180;6820;49.374;8.452;2022-09-30T15:15:32;100056.38;;;25.85
13497;BMP180;6820;49.374;8.452;2022-09-30T15:19:41;100058.81;;;26.12
13497;BMP180;6820;49.374;8.452;2022-09-30T15:23:47;100056.16;;;26.28
13497;BMP180;6820;49.374;8.452;2022-09-30T15:27:51;100056.16;;;26.28
13497;BMP180;6820;49.374;8.452;2022-09-30T15:32:13;100046.81;;;25.93
13497;BMP180;6820;49.374;8.452;2022-09-30T15:36:18;100052.97;;;25.80
13497;BMP180;6820;49.374;8.452;2022-09-30T15:40:22;100054.66;;;25.80
13497;BMP180;6820;49.374;8.452;2022-09-30T15:44:42;100062.53;;;25.68
13497;BMP180;6820;49.374;8.452;2022-09-30T15:48:45;100050.41;;;25.64
13497;BMP180;6820;49.374;8.452;2022-09-30T15:52:47;100059.94;;;25.64
13497;BMP180;6820;49.374;8.452;2022-09-30T15:56:51;100056.50;;;25.59
13497;BMP180;6820;49.374;8.452;2022-09-30T16:01:08;100061.75;;;25.51
13497;BMP180;6820;49.374;8.452;2022-09-30T16:05:11;100057.41;;;25.46
13497;BMP180;6820;49.374;8.452;2022-09-30T16:09:31;100050.53;;;25.27
13497;BMP180;6820;49.374;8.452;2022-09-30T16:13:35;100054.91;;;25.09
13497;BMP180;6820;49.374;8.452;2022-09-30T16:17:44;100060.97;;;24.92
13497;BMP180;6820;49.374;8.452;2022-09-30T16:21:47;100057.53;;;24.60
13497;BMP180;6820;49.374;8.452;2022-09-30T16:26:11;100059.22;;;24.26
13497;BMP180;6820;49.374;8.452;2022-09-30T16:30:17;100049.59;;;23.92
13497;BMP180;6820;49.374;8.452;2022-09-30T16:34:26;100054.69;;;23.66
13497;BMP180;6820;49.374;8.452;2022-09-30T16:38:28;100061.47;;;23.46
13497;BMP180;6820;49.374;8.452;2022-09-30T16:42:29;100067.41;;;23.26
13497;BMP180;6820;49.374;8.452;2022-09-30T16:46:33;100073.34;;;23.12
13497;BMP180;6820;49.374;8.452;2022-09-30T16:51:05;100079.28;;;22.96
13497;BMP180;6820;49.374;8.452;2022-09-30T16:55:08;100076.59;;;22.84
13497;BMP180;6820;49.374;8.452;2022-09-30T16:59:13;100071.31;;;22.72
13497;BMP180;6820;49.374;8.452;2022-09-30T17:03:16;100079.81;;;22.62
13497;BMP180;6820;49.374;8.452;2022-09-30T17:07:18;100086.66;;;22.53
13497;BMP180;6820;49.374;8.452;2022-09-30T17:11:24;100089.16;;;22.44
13497;BMP180;6820;49.374;8.452;2022-09-30T17:15:33;100098.50;;;22.32
13497;BMP180;6820;49.374;8.452;2022-09-30T17:19:37;100107.00;;;22.22
13497;BMP180;6820;49.374;8.452;2022-09-30T17:23:39;100110.38;;;22.15
13497;BMP180;6820;49.374;8.452;2022-09-30T17:27:41;100108.47;;;22.04
13497;BMP180;6820;49.374;8.452;2022-09-30T17:31:42;100115.28;;;21.98
13497;BMP180;6820;49.374;8.452;2022-09-30T17:35:44;100114.38;;;21.91
13497;BMP180;6820;49.374;8.452;2022-09-30T17:39:46;100110.81;;;21.85
13497;BMP180;6820;49.374;8.452;2022-09-30T17:43:47;100118.50;;;21.79
13497;BMP180;6820;49.374;8.452;2022-09-30T17:47:49;100121.84;;;21.72
13497;BMP180;6820;49.374;8.452;2022-09-30T17:51:51;100132.09;;;21.65
13497;BMP180;6820;49.374;8.452;2022-09-30T17:56:04;100126.00;;;21.60
13497;BMP180;6820;49.374;8.452;2022-09-30T18:00:10;100135.38;;;21.55
13497;BMP180;6820;49.374;8.452;2022-09-30T18:04:12;100137.00;;;21.48
13497;BMP180;6820;49.374;8.452;2022-09-30T18:08:14;100142.91;;;21.41
13497;BMP180;6820;49.374;8.452;2022-09-30T18:12:16;100145.41;;;21.36
13497;BMP180;6820;49.374;8.452;2022-09-30T18:16:17;100152.13;;;21.29
13497;BMP180;6820;49.374;8.452;2022-09-30T18:20:19;100165.84;;;21.25
13497;BMP180;6820;49.374;8.452;2022-09-30T18:24:25;100161.47;;;21.20
13497;BMP180;6820;49.374;8.452;2022-09-30T18:28:46;100180.19;;;21.10
13497;BMP180;6820;49.374;8.452;2022-09-30T18:32:52;100180.09;;;21.04
13497;BMP180;6820;49.374;8.452;2022-09-30T18:36:54;100179.16;;;20.98
13497;BMP180;6820;49.374;8.452;2022-09-30T18:40:55;100195.28;;;20.89
13497;BMP180;6820;49.374;8.452;2022-09-30T18:44:57;100185.59;;;20.75
13497;BMP180;6820;49.374;8.452;2022-09-30T18:48:58;100188.91;;;20.67
13497;BMP180;6820;49.374;8.452;2022-09-30T18:53:00;100179.34;;;20.63
13497;BMP180;6820;49.374;8.452;2022-09-30T18:57:10;100186.19;;;20.59
13497;BMP180;6820;49.374;8.452;2022-09-30T19:01:11;100180.97;;;20.56
13497;BMP180;6820;49.374;8.452;2022-09-30T19:05:14;100177.44;;;20.53
13497;BMP180;6820;49.374;8.452;2022-09-30T19:09:17;100165.38;;;20.50
13497;BMP180;6820;49.374;8.452;2022-09-30T19:13:20;100161.00;;;20.46
13497;BMP180;6820;49.374;8.452;2022-09-30T19:17:21;100158.41;;;20.45
13497;BMP180;6820;49.374;8.452;2022-09-30T19:21:23;100160.09;;;20.43
13497;BMP180;6820;49.374;8.452;2022-09-30T19:25:25;100166.03;;;20.39
13497;BMP180;6820;49.374;8.452;2022-09-30T19:29:26;100157.38;;;20.36
13497;BMP180;6820;49.374;8.452;2022-09-30T19:33:28;100167.63;;;20.33
13497;BMP180;6820;49.374;8.452;2022-09-30T19:37:30;100169.28;;;20.29
13497;BMP180;6820;49.374;8.452;2022-09-30T19:41:31;100181.22;;;20.26
13497;BMP180;6820;49.374;8.452;2022-09-30T19:45:33;100173.41;;;20.23
13497;BMP180;6820;49.374;8.452;2022-09-30T19:49:35;100151.91;;;20.19
13497;BMP180;6820;49.374;8.452;2022-09-30T19:53:42;100162.13;;;20.15
13497;BMP180;6820;49.374;8.452;2022-09-30T19:57:53;100164.63;;;20.12
13497;BMP180;6820;49.374;8.452;2022-09-30T20:01:55;100172.28;;;20.09
13497;BMP180;6820;49.374;8.452;2022-09-30T20:06:02;100183.31;;;20.04
13497;BMP180;6820;49.374;8.452;2022-09-30T20:10:04;100178.97;;;20.00
13497;BMP180;6820;49.374;8.452;2022-09-30T20:14:07;100179.72;;;19.96
13497;BMP180;6820;49.374;8.452;2022-09-30T20:18:28;100188.22;;;19.92
13497;BMP180;6820;49.374;8.452;2022-09-30T20:22:30;100180.44;;;19.89
13497;BMP180;6820;49.374;8.452;2022-09-30T20:26:32;100184.63;;;19.84
13497;BMP180;6820;49.374;8.452;2022-09-30T20:30:38;100190.34;;;19.73
13497;BMP180;6820;49.374;8.452;2022-09-30T20:34:46;100194.22;;;19.54
13497;BMP180;6820;49.374;8.452;2022-09-30T20:38:52;100195.69;;;19.44
13497;BMP180;6820;49.374;8.452;2022-09-30T20:42:54;100194.84;;;19.45
13497;BMP180;6820;49.374;8.452;2022-09-30T20:47:04;100195.69;;;19.45
13497;BMP180;6820;49.374;8.452;2022-09-30T20:51:07;100199.13;;;19.44
13497;BMP180;6820;49.374;8.452;2022-09-30T20:55:09;100204.25;;;19.44
13497;BMP180;6820;49.374;8.452;2022-09-30T20:59:11;100205.97;;;19.44
13497;BMP180;6820;49.374;8.452;2022-09-30T21:03:13;100223.97;;;19.45
13497;BMP180;6820;49.374;8.452;2022-09-30T21:07:15;100233.31;;;19.42
13497;BMP180;6820;49.374;8.452;2022-09-30T21:11:17;100242.75;;;19.43
13497;BMP180;6820;49.374;8.452;2022-09-30T21:15:19;100251.53;;;19.51
13497;BMP180;6820;49.374;8.452;2022-09-30T21:19:21;100237.13;;;19.58
13497;BMP180;6820;49.374;8.452;2022-09-30T21:23:32;100236.22;;;19.55
13497;BMP180;6820;49.374;8.452;2022-09-30T21:27:34;100234.25;;;19.45
13497;BMP180;6820;49.374;8.452;2022-09-30T21:31:36;100247.88;;;19.41
13497;BMP180;6820;49.374;8.452;2022-09-30T21:35:38;100230.63;;;19.37
13497;BMP180;6820;49.374;8.452;2022-09-30T21:39:40;100224.63;;;19.35
13497;BMP180;6820;49.374;8.452;2022-09-30T21:43:42;100198.81;;;19.31
13497;BMP180;6820;49.374;8.452;2022-09-30T21:47:44;100211.59;;;19.29
13497;BMP180;6820;49.374;8.452;2022-09-30T21:51:46;100203.72;;;19.22
13497;BMP180;6820;49.374;8.452;2022-09-30T21:55:55;100208.75;;;19.18
13497;BMP180;6820;49.374;8.452;2022-09-30T21:59:59;100212.91;;;19.13
13497;BMP180;6820;49.374;8.452;2022-09-30T22:04:01;100212.84;;;19.10
13497;BMP180;6820;49.374;8.452;2022-09-30T22:08:04;100199.06;;;19.06
13497;BMP180;6820;49.374;8.452;2022-09-30T22:12:06;100204.91;;;19.01
13497;BMP180;6820;49.374;8.452;2022-09-30T22:16:09;100205.56;;;18.92
13497;BMP180;6820;49.374;8.452;2022-09-30T22:20:11;100221.66;;;18.89
13497;BMP180;6820;49.374;8.452;2022-09-30T22:24:13;100211.38;;;18.87
13497;BMP180;6820;49.374;8.452;2022-09-30T22:28:15;100204.53;;;18.88
13497;BMP180;6820;49.374;8.452;2022-09-30T22:32:17;100203.63;;;18.86
13497;BMP180;6820;49.374;8.452;2022-09-30T22:36:19;100207.91;;;18.87
13497;BMP180;6820;49.374;8.452;2022-09-30T22:40:39;100212.13;;;18.83
13497;BMP180;6820;49.374;8.452;2022-09-30T22:44:41;100200.13;;;18.84
13497;BMP180;6820;49.374;8.452;2022-09-30T22:48:42;100203.56;;;18.84
13497;BMP180;6820;49.374;8.452;2022-09-30T22:52:45;100209.50;;;18.82
13497;BMP180;6820;49.374;8.452;2022-09-30T22:56:47;100209.47;;;18.80
13497;BMP180;6820;49.374;8.452;2022-09-30T23:00:54;100204.25;;;18.77
13497;BMP180;6820;49.374;8.452;2022-09-30T23:04:56;100198.22;;;18.75
13497;BMP180;6820;49.374;8.452;2022-09-30T23:09:03;100206.69;;;18.71
13497;BMP180;6820;49.374;8.452;2022-09-30T23:13:05;100207.56;;;18.73
13497;BMP180;6820;49.374;8.452;2022-09-30T23:17:09;100211.84;;;18.73
13497;BMP180;6820;49.374;8.452;2022-09-30T23:21:13;100207.53;;;18.72
13497;BMP180;6820;49.374;8.452;2022-09-30T23:25:15;100210.13;;;18.73
13497;BMP180;6820;49.374;8.452;2022-09-30T23:29:17;100204.06;;;18.70
13497;BMP180;6820;49.374;8.452;2022-09-30T23:33:18;100205.63;;;18.65
13497;BMP180;6820;49.374;8.452;2022-09-30T23:37:20;100206.41;;;18.62
13497;BMP180;6820;49.374;8.452;2022-09-30T23:41:22;100205.56;;;18.62
13497;BMP180;6820;49.374;8.452;2022-09-30T23:45:23;100192.59;;;18.58
13497;BMP180;6820;49.374;8.452;2022-09-30T23:49:25;100197.72;;;18.58
13497;BMP180;6820;49.374;8.452;2022-09-30T23:53:26;100187.47;;;18.58
13497;BMP180;6820;49.374;8.452;2022-09-30T23:57:28;100185.72;;;18.55
